Saint Bonnet de Bellac- Haute Vienne - France
Donnes mto: samedi, 25/02/2012
Date Horaire Temp. E. Hum. E. P.atmo. Pluie Vent Direction Direction Ensoleilleme Solaire P. de rose Temp au vent Rafales
25/02/2012 00:00 8,8 C 92 % 1027,6 hPa 0,0 mm 5,4 km/h (2 Bft) NE 45 0 min 0 W/m 7,6 C 8,3 C 13,0 km/h (3 Bft)
25/02/2012 00:10 8,8 C 92 % 1027,4 hPa 0,0 mm 4,7 km/h (1 Bft) NE 45 0 min 0 W/m 7,6 C 8,5 C 8,3 km/h (2 Bft)
25/02/2012 00:20 8,8 C 92 % 1027,5 hPa 0,0 mm 2,2 km/h (1 Bft) E-NE 67 0 min 0 W/m 7,6 C 8,8 C 6,5 km/h (2 Bft)
25/02/2012 00:30 8,8 C 92 % 1027,4 hPa 0,0 mm 0,4 km/h (0 Bft) NE 45 0 min 0 W/m 7,6 C 8,8 C 4,3 km/h (1 Bft)
25/02/2012 00:40 8,8 C 92 % 1027,3 hPa 0,0 mm 3,2 km/h (1 Bft) NE 45 0 min 0 W/m 7,6 C 8,8 C 6,5 km/h (2 Bft)
25/02/2012 00:50 8,6 C 92 % 1027,2 hPa 0,0 mm 4,3 km/h (1 Bft) E-NE 67 0 min 0 W/m 7,4 C 8,6 C 6,1 km/h (2 Bft)
25/02/2012 01:00 8,6 C 92 % 1027,1 hPa 0,0 mm 3,2 km/h (1 Bft) E-NE 67 0 min 0 W/m 7,4 C 8,6 C 4,3 km/h (1 Bft)
25/02/2012 01:10 8,6 C 92 % 1027,0 hPa 0,0 mm 2,2 km/h (1 Bft) NE 45 0 min 0 W/m 7,4 C 8,6 C 3,6 km/h (1 Bft)
25/02/2012 01:20 8,6 C 92 % 1027,0 hPa 0,0 mm 4,7 km/h (1 Bft) E 90 0 min 0 W/m 7,4 C 8,3 C 8,6 km/h (2 Bft)
25/02/2012 01:30 8,4 C 92 % 1026,9 hPa 0,0 mm 0,0 km/h (0 Bft) NE 45 0 min 0 W/m 7,2 C 8,4 C 0,0 km/h (0 Bft)
25/02/2012 01:40 8,4 C 92 % 1026,8 hPa 0,0 mm 0,7 km/h (0 Bft) E 90 0 min 0 W/m 7,2 C 8,4 C 0,7 km/h (0 Bft)
25/02/2012 01:50 8,3 C 92 % 1026,7 hPa 0,0 mm 2,2 km/h (1 Bft) E 90 0 min 0 W/m 7,1 C 8,3 C 3,6 km/h (1 Bft)
25/02/2012 02:02 8,2 C 93 % 1026,6 hPa 0,0 mm 4,3 km/h (1 Bft) NE 45 0 min 0 W/m 7,1 C 8,2 C 8,6 km/h (2 Bft)
25/02/2012 02:10 8,1 C 92 % 1026,6 hPa 0,0 mm 1,4 km/h (1 Bft) E-NE 67 0 min 0 W/m 6,9 C 8,1 C 6,8 km/h (2 Bft)
25/02/2012 02:20 8,0 C 92 % 1026,6 hPa 0,0 mm 2,2 km/h (1 Bft) E-NE 67 0 min 0 W/m 6,8 C 8,0 C 4,0 km/h (1 Bft)
25/02/2012 02:30 7,9 C 92 % 1026,5 hPa 0,0 mm 5,0 km/h (1 Bft) NE 45 0 min 0 W/m 6,7 C 7,4 C 8,6 km/h (2 Bft)
25/02/2012 02:40 7,9 C 92 % 1026,5 hPa 0,0 mm 2,5 km/h (1 Bft) NE 45 0 min 0 W/m 6,7 C 7,9 C 3,2 km/h (1 Bft)
25/02/2012 02:50 7,8 C 92 % 1026,4 hPa 0,0 mm 6,1 km/h (2 Bft) NE 45 0 min 0 W/m 6,6 C 6,9 C 8,3 km/h (2 Bft)
25/02/2012 03:00 7,8 C 92 % 1026,4 hPa 0,0 mm 3,6 km/h (1 Bft) NE 45 0 min 0 W/m 6,6 C 7,8 C 8,3 km/h (2 Bft)
25/02/2012 03:10 7,8 C 92 % 1026,4 hPa 0,0 mm 3,6 km/h (1 Bft) NE 45 0 min 0 W/m 6,6 C 7,8 C 6,5 km/h (2 Bft)
25/02/2012 03:20 7,8 C 92 % 1026,3 hPa 0,0 mm 6,8 km/h (2 Bft) NE 45 0 min 0 W/m 6,6 C 6,7 C 9,4 km/h (2 Bft)
25/02/2012 03:30 7,7 C 92 % 1026,2 hPa 0,0 mm 9,0 km/h (2 Bft) NE 45 0 min 0 W/m 6,5 C 6,1 C 11,2 km/h (2 Bft)
25/02/2012 03:40 7,8 C 93 % 1026,0 hPa 0,0 mm 1,4 km/h (1 Bft) E-NE 67 0 min 0 W/m 6,7 C 7,8 C 3,2 km/h (1 Bft)
25/02/2012 03:50 7,8 C 93 % 1025,9 hPa 0,0 mm 4,0 km/h (1 Bft) NE 45 0 min 0 W/m 6,7 C 7,8 C 7,2 km/h (2 Bft)
25/02/2012 04:00 7,8 C 93 % 1025,7 hPa 0,0 mm 2,2 km/h (1 Bft) NE 45 0 min 0 W/m 6,7 C 7,8 C 6,1 km/h (2 Bft)
25/02/2012 04:10 7,7 C 93 % 1025,7 hPa 0,0 mm 6,1 km/h (2 Bft) NE 45 0 min 0 W/m 6,6 C 6,8 C 7,6 km/h (2 Bft)
25/02/2012 04:20 7,8 C 93 % 1025,5 hPa 0,0 mm 7,2 km/h (2 Bft) E-NE 67 0 min 0 W/m 6,7 C 6,6 C 14,0 km/h (3 Bft)
25/02/2012 04:30 7,8 C 93 % 1025,5 hPa 0,0 mm 3,6 km/h (1 Bft) NE 45 0 min 0 W/m 6,7 C 7,8 C 7,9 km/h (2 Bft)
25/02/2012 04:40 7,8 C 93 % 1025,5 hPa 0,0 mm 3,6 km/h (1 Bft) NE 45 0 min 0 W/m 6,7 C 7,8 C 6,8 km/h (2 Bft)
25/02/2012 04:50 7,8 C 93 % 1025,4 hPa 0,0 mm 2,5 km/h (1 Bft) E-NE 67 0 min 0 W/m 6,7 C 7,8 C 4,0 km/h (1 Bft)
25/02/2012 05:00 7,8 C 93 % 1025,3 hPa 0,0 mm 4,3 km/h (1 Bft) E-NE 67 0 min 0 W/m 6,7 C 7,8 C 6,1 km/h (2 Bft)
25/02/2012 05:10 7,8 C 93 % 1025,2 hPa 0,0 mm 4,7 km/h (1 Bft) NE 45 0 min 0 W/m 6,7 C 7,4 C 4,7 km/h (1 Bft)
25/02/2012 05:20 7,8 C 93 % 1025,2 hPa 0,0 mm 2,2 km/h (1 Bft) NE 45 0 min 0 W/m 6,7 C 7,8 C 4,0 km/h (1 Bft)
25/02/2012 05:30 7,8 C 93 % 1025,2 hPa 0,0 mm 2,5 km/h (1 Bft) E-NE 67 0 min 0 W/m 6,7 C 7,8 C 6,1 km/h (2 Bft)
25/02/2012 05:40 7,8 C 93 % 1025,3 hPa 0,0 mm 2,9 km/h (1 Bft) NE 45 0 min 0 W/m 6,7 C 7,8 C 4,3 km/h (1 Bft)
25/02/2012 05:50 7,8 C 93 % 1025,2 hPa 0,0 mm 2,2 km/h (1 Bft) NE 45 0 min 0 W/m 6,7 C 7,8 C 3,6 km/h (1 Bft)
25/02/2012 06:00 7,8 C 93 % 1025,3 hPa 0,0 mm 4,3 km/h (1 Bft) NE 45 0 min 0 W/m 6,7 C 7,8 C 6,8 km/h (2 Bft)
25/02/2012 06:10 7,8 C 93 % 1025,2 hPa 0,0 mm 5,4 km/h (2 Bft) NE 45 0 min 0 W/m 6,7 C 7,1 C 7,9 km/h (2 Bft)
25/02/2012 06:20 7,8 C 93 % 1025,2 hPa 0,0 mm 4,0 km/h (1 Bft) NE 45 0 min 0 W/m 6,7 C 7,8 C 4,0 km/h (1 Bft)
25/02/2012 06:30 7,8 C 93 % 1025,3 hPa 0,0 mm 7,6 km/h (2 Bft) E-NE 67 0 min 0 W/m 6,7 C 6,5 C 11,9 km/h (2 Bft)
25/02/2012 06:40 7,7 C 93 % 1025,3 hPa 0,0 mm 5,4 km/h (2 Bft) NE 45 0 min 0 W/m 6,6 C 7,0 C 9,4 km/h (2 Bft)
25/02/2012 06:50 7,7 C 93 % 1025,4 hPa 0,0 mm 3,6 km/h (1 Bft) N-NE 22 0 min 0 W/m 6,6 C 7,7 C 7,9 km/h (2 Bft)
25/02/2012 07:00 7,6 C 93 % 1025,5 hPa 0,0 mm 4,7 km/h (1 Bft) NE 45 0 min 0 W/m 6,5 C 7,1 C 8,3 km/h (2 Bft)
25/02/2012 07:10 7,6 C 93 % 1025,6 hPa 0,0 mm 3,2 km/h (1 Bft) E-NE 67 0 min 0 W/m 6,5 C 7,6 C 3,2 km/h (1 Bft)
25/02/2012 07:20 7,6 C 93 % 1025,6 hPa 0,0 mm 5,4 km/h (2 Bft) NE 45 0 min 0 W/m 6,5 C 6,9 C 6,5 km/h (2 Bft)
25/02/2012 07:30 7,6 C 93 % 1025,5 hPa 0,0 mm 5,8 km/h (2 Bft) NE 45 0 min 0 W/m 6,5 C 6,8 C 5,8 km/h (2 Bft)
25/02/2012 07:40 7,6 C 93 % 1025,6 hPa 0,0 mm 7,2 km/h (2 Bft) NE 45 0 min 0 W/m 6,5 C 6,4 C 10,4 km/h (2 Bft)
25/02/2012 07:50 7,6 C 93 % 1025,7 hPa 0,0 mm 6,5 km/h (2 Bft) NE 45 0 min 0 W/m 6,5 C 6,6 C 7,9 km/h (2 Bft)
25/02/2012 08:00 7,6 C 93 % 1025,8 hPa 0,0 mm 6,8 km/h (2 Bft) NE 45 2 min 0 W/m 6,5 C 6,5 C 8,3 km/h (2 Bft)
25/02/2012 08:10 7,6 C 93 % 1025,9 hPa 0,0 mm 5,0 km/h (1 Bft) NE 45 2 min 0 W/m 6,5 C 7,0 C 9,7 km/h (2 Bft)
25/02/2012 08:20 7,5 C 94 % 1026,1 hPa 0,0 mm 6,5 km/h (2 Bft) N-NE 22 2 min 0 W/m 6,6 C 6,5 C 7,9 km/h (2 Bft)
25/02/2012 08:30 7,6 C 94 % 1026,0 hPa 0,0 mm 4,0 km/h (1 Bft) NE 45 2 min 0 W/m 6,7 C 7,6 C 10,4 km/h (2 Bft)
25/02/2012 08:40 7,6 C 94 % 1026,1 hPa 0,0 mm 2,9 km/h (1 Bft) E 90 2 min 0 W/m 6,7 C 7,6 C 6,1 km/h (2 Bft)
25/02/2012 08:50 7,6 C 94 % 1026,1 hPa 0,0 mm 4,0 km/h (1 Bft) NE 45 2 min 0 W/m 6,7 C 7,6 C 8,3 km/h (2 Bft)
25/02/2012 09:00 7,6 C 94 % 1026,0 hPa 0,0 mm 9,4 km/h (2 Bft) NE 45 2 min 0 W/m 6,7 C 5,9 C 10,4 km/h (2 Bft)
25/02/2012 09:10 7,7 C 94 % 1026,1 hPa 0,0 mm 7,2 km/h (2 Bft) E-NE 67 2 min 0 W/m 6,8 C 6,5 C 9,4 km/h (2 Bft)
25/02/2012 09:20 7,8 C 94 % 1026,1 hPa 0,0 mm 1,1 km/h (1 Bft) E-NE 67 2 min 0 W/m 6,9 C 7,8 C 3,2 km/h (1 Bft)
25/02/2012 09:30 7,8 C 94 % 1025,9 hPa 0,0 mm 2,9 km/h (1 Bft) E-NE 67 2 min 0 W/m 6,9 C 7,8 C 3,2 km/h (1 Bft)
25/02/2012 09:40 8,0 C 94 % 1025,9 hPa 0,0 mm 4,3 km/h (1 Bft) NE 45 2 min 0 W/m 7,1 C 8,0 C 6,5 km/h (2 Bft)
25/02/2012 09:50 8,3 C 94 % 1025,8 hPa 0,0 mm 5,8 km/h (2 Bft) NE 45 2 min 0 W/m 7,4 C 7,6 C 8,3 km/h (2 Bft)
25/02/2012 10:00 8,3 C 93 % 1025,8 hPa 0,0 mm 2,5 km/h (1 Bft) NE 45 2 min 0 W/m 7,2 C 8,3 C 7,9 km/h (2 Bft)
25/02/2012 10:10 8,5 C 94 % 1025,8 hPa 0,0 mm 5,4 km/h (2 Bft) NE 45 2 min 0 W/m 7,6 C 7,9 C 7,6 km/h (2 Bft)
25/02/2012 10:20 8,8 C 93 % 1025,9 hPa 0,0 mm 4,3 km/h (1 Bft) N-NE 22 2 min 0 W/m 7,7 C 8,8 C 7,2 km/h (2 Bft)
25/02/2012 10:30 9,1 C 93 % 1025,8 hPa 0,0 mm 3,2 km/h (1 Bft) NE 45 2 min 0 W/m 8,0 C 9,1 C 3,2 km/h (1 Bft)
25/02/2012 10:40 9,2 C 92 % 1025,6 hPa 0,0 mm 2,5 km/h (1 Bft) NE 45 2 min 0 W/m 8,0 C 9,2 C 7,6 km/h (2 Bft)
25/02/2012 10:50 9,6 C 92 % 1025,9 hPa 0,0 mm 3,2 km/h (1 Bft) NE 45 2 min 0 W/m 8,4 C 9,6 C 6,1 km/h (2 Bft)
25/02/2012 11:00 9,9 C 90 % 1025,8 hPa 0,0 mm 4,3 km/h (1 Bft) N-NE 22 2 min 0 W/m 8,3 C 9,9 C 6,5 km/h (2 Bft)
25/02/2012 11:10 10,1 C 89 % 1025,6 hPa 0,0 mm 5,8 km/h (2 Bft) NE 45 2 min 0 W/m 8,4 C 10,1 C 6,8 km/h (2 Bft)
25/02/2012 11:20 10,6 C 88 % 1025,6 hPa 0,0 mm 4,7 km/h (1 Bft) E-NE 67 2 min 0 W/m 8,7 C 10,6 C 8,3 km/h (2 Bft)
25/02/2012 11:30 11,4 C 86 % 1025,8 hPa 0,0 mm 4,3 km/h (1 Bft) N-NE 22 2 min 0 W/m 9,1 C 11,4 C 10,1 km/h (2 Bft)
25/02/2012 11:40 11,8 C 85 % 1025,7 hPa 0,0 mm 4,0 km/h (1 Bft) E-NE 67 2 min 0 W/m 9,4 C 11,8 C 8,6 km/h (2 Bft)
25/02/2012 11:50 12,5 C 83 % 1025,9 hPa 0,0 mm 8,3 km/h (2 Bft) NE 45 2 min 0 W/m 9,7 C 12,5 C 8,3 km/h (2 Bft)
25/02/2012 12:00 12,8 C 81 % 1025,8 hPa 0,0 mm 6,1 km/h (2 Bft) N-NE 22 2 min 0 W/m 9,6 C 12,8 C 7,2 km/h (2 Bft)
25/02/2012 12:10 13,5 C 80 % 1025,8 hPa 0,0 mm 4,0 km/h (1 Bft) N-NE 22 2 min 0 W/m 10,1 C 13,5 C 4,0 km/h (1 Bft)
25/02/2012 12:20 13,9 C 78 % 1025,8 hPa 0,0 mm 3,6 km/h (1 Bft) NE 45 2 min 0 W/m 10,1 C 13,9 C 7,2 km/h (2 Bft)
25/02/2012 12:30 14,4 C 77 % 1025,8 hPa 0,0 mm 5,8 km/h (2 Bft) N-NE 22 2 min 0 W/m 10,4 C 14,4 C 7,6 km/h (2 Bft)
25/02/2012 12:40 14,6 C 76 % 1025,7 hPa 0,0 mm 5,8 km/h (2 Bft) NE 45 2 min 0 W/m 10,4 C 14,6 C 13,0 km/h (3 Bft)
25/02/2012 12:50 14,8 C 75 % 1025,6 hPa 0,0 mm 5,0 km/h (1 Bft) N-NE 22 2 min 0 W/m 10,4 C 14,8 C 7,2 km/h (2 Bft)
25/02/2012 13:00 14,8 C 74 % 1025,6 hPa 0,0 mm 6,8 km/h (2 Bft) N 360 2 min 0 W/m 10,2 C 14,8 C 10,8 km/h (2 Bft)
25/02/2012 13:10 14,8 C 74 % 1025,9 hPa 0,0 mm 7,2 km/h (2 Bft) N 360 2 min 0 W/m 10,2 C 14,8 C 14,4 km/h (3 Bft)
25/02/2012 13:20 14,8 C 74 % 1025,6 hPa 0,0 mm 7,2 km/h (2 Bft) N-NE 22 2 min 0 W/m 10,2 C 14,8 C 9,7 km/h (2 Bft)
25/02/2012 13:30 14,8 C 75 % 1025,7 hPa 0,0 mm 9,7 km/h (2 Bft) N-NO 337 2 min 0 W/m 10,4 C 14,8 C 11,5 km/h (2 Bft)
25/02/2012 13:40 14,8 C 74 % 1025,4 hPa 0,0 mm 6,8 km/h (2 Bft) N-NE 22 2 min 0 W/m 10,2 C 14,8 C 10,4 km/h (2 Bft)
25/02/2012 13:50 14,7 C 74 % 1025,0 hPa 0,0 mm 2,9 km/h (1 Bft) N-NE 22 2 min 0 W/m 10,1 C 14,7 C 4,3 km/h (1 Bft)
25/02/2012 14:00 14,8 C 75 % 1024,9 hPa 0,0 mm 4,7 km/h (1 Bft) NE 45 2 min 0 W/m 10,4 C 14,8 C 7,2 km/h (2 Bft)
25/02/2012 14:10 15,1 C 74 % 1024,7 hPa 0,0 mm 7,2 km/h (2 Bft) NE 45 2 min 0 W/m 10,5 C 15,1 C 8,6 km/h (2 Bft)
25/02/2012 14:20 15,1 C 74 % 1024,7 hPa 0,0 mm 6,5 km/h (2 Bft) NE 45 2 min 0 W/m 10,5 C 15,1 C 7,6 km/h (2 Bft)
25/02/2012 14:30 15,1 C 73 % 1024,6 hPa 0,0 mm 4,7 km/h (1 Bft) N-NO 337 2 min 0 W/m 10,3 C 15,1 C 8,3 km/h (2 Bft)
25/02/2012 14:40 15,1 C 73 % 1024,5 hPa 0,0 mm 6,1 km/h (2 Bft) NE 45 2 min 0 W/m 10,3 C 15,1 C 10,1 km/h (2 Bft)
25/02/2012 14:50 15,1 C 74 % 1024,6 hPa 0,0 mm 8,6 km/h (2 Bft) NE 45 2 min 0 W/m 10,5 C 15,1 C 15,1 km/h (3 Bft)
25/02/2012 15:00 14,9 C 73 % 1024,5 hPa 0,0 mm 9,4 km/h (2 Bft) E-NE 67 2 min 0 W/m 10,1 C 14,9 C 13,0 km/h (3 Bft)
25/02/2012 15:10 14,6 C 74 % 1024,3 hPa 0,0 mm 5,0 km/h (1 Bft) N-NE 22 2 min 0 W/m 10,0 C 14,6 C 7,9 km/h (2 Bft)
25/02/2012 15:20 14,4 C 75 % 1024,1 hPa 0,0 mm 11,2 km/h (2 Bft) N-NE 22 2 min 0 W/m 10,0 C 14,4 C 15,5 km/h (3 Bft)
25/02/2012 15:30 14,3 C 75 % 1024,3 hPa 0,0 mm 6,8 km/h (2 Bft) N-NE 22 2 min 0 W/m 9,9 C 14,3 C 9,0 km/h (2 Bft)
25/02/2012 15:40 14,2 C 75 % 1024,2 hPa 0,0 mm 9,4 km/h (2 Bft) N-NE 22 2 min 0 W/m 9,8 C 14,2 C 9,4 km/h (2 Bft)
25/02/2012 15:50 14,0 C 75 % 1024,1 hPa 0,0 mm 10,4 km/h (2 Bft) N-NE 22 2 min 0 W/m 9,6 C 14,0 C 14,8 km/h (3 Bft)
25/02/2012 16:00 13,8 C 76 % 1024,0 hPa 0,0 mm 5,4 km/h (2 Bft) N-NE 22 2 min 0 W/m 9,6 C 13,8 C 9,4 km/h (2 Bft)
25/02/2012 16:10 13,5 C 76 % 1023,9 hPa 0,0 mm 9,0 km/h (2 Bft) N-NE 22 2 min 0 W/m 9,4 C 13,5 C 14,4 km/h (3 Bft)
25/02/2012 16:20 13,3 C 77 % 1023,9 hPa 0,0 mm 5,4 km/h (2 Bft) NE 45 2 min 0 W/m 9,4 C 13,3 C 5,4 km/h (2 Bft)
25/02/2012 16:30 13,1 C 77 % 1024,0 hPa 0,0 mm 5,4 km/h (2 Bft) N 360 2 min 0 W/m 9,2 C 13,1 C 8,6 km/h (2 Bft)
25/02/2012 16:40 13,1 C 78 % 1023,9 hPa 0,0 mm 4,7 km/h (1 Bft) N-NE 22 2 min 0 W/m 9,4 C 13,1 C 7,6 km/h (2 Bft)
25/02/2012 16:50 13,0 C 78 % 1023,9 hPa 0,0 mm 5,8 km/h (2 Bft) NE 45 2 min 0 W/m 9,3 C 13,0 C 8,3 km/h (2 Bft)
25/02/2012 17:00 12,9 C 78 % 1023,9 hPa 0,0 mm 5,4 km/h (2 Bft) E-NE 67 2 min 0 W/m 9,2 C 12,9 C 7,2 km/h (2 Bft)
25/02/2012 17:10 12,8 C 78 % 1023,8 hPa 0,0 mm 3,6 km/h (1 Bft) E 90 2 min 0 W/m 9,1 C 12,8 C 6,8 km/h (2 Bft)
25/02/2012 17:20 12,8 C 78 % 1023,7 hPa 0,0 mm 4,3 km/h (1 Bft) NE 45 2 min 0 W/m 9,1 C 12,8 C 6,8 km/h (2 Bft)
25/02/2012 17:30 12,6 C 79 % 1023,8 hPa 0,0 mm 6,8 km/h (2 Bft) N-NE 22 2 min 0 W/m 9,1 C 12,6 C 9,4 km/h (2 Bft)
25/02/2012 17:40 12,5 C 79 % 1023,8 hPa 0,0 mm 5,4 km/h (2 Bft) N-NE 22 2 min 0 W/m 9,0 C 12,5 C 9,0 km/h (2 Bft)
25/02/2012 17:50 12,5 C 79 % 1023,7 hPa 0,0 mm 5,4 km/h (2 Bft) N-NE 22 2 min 0 W/m 9,0 C 12,5 C 7,9 km/h (2 Bft)
25/02/2012 18:00 12,3 C 79 % 1023,5 hPa 0,0 mm 6,5 km/h (2 Bft) E-NE 67 2 min 0 W/m 8,8 C 12,3 C 12,2 km/h (2 Bft)
25/02/2012 18:10 12,1 C 80 % 1023,3 hPa 0,0 mm 6,1 km/h (2 Bft) N-NE 22 2 min 0 W/m 8,8 C 12,1 C 10,1 km/h (2 Bft)
25/02/2012 18:20 11,9 C 81 % 1023,2 hPa 0,0 mm 1,8 km/h (1 Bft) N-NE 22 2 min 0 W/m 8,7 C 11,9 C 1,8 km/h (1 Bft)
25/02/2012 18:30 11,8 C 81 % 1023,3 hPa 0,0 mm 2,5 km/h (1 Bft) NE 45 0 min 0 W/m 8,6 C 11,8 C 4,3 km/h (1 Bft)
25/02/2012 18:40 11,6 C 81 % 1023,2 hPa 0,0 mm 0,4 km/h (0 Bft) N-NE 22 0 min 0 W/m 8,5 C 11,6 C 3,2 km/h (1 Bft)
25/02/2012 18:50 11,6 C 82 % 1023,4 hPa 0,0 mm 4,7 km/h (1 Bft) N-NE 22 0 min 0 W/m 8,6 C 11,6 C 7,6 km/h (2 Bft)
25/02/2012 19:00 11,5 C 83 % 1023,3 hPa 0,0 mm 4,0 km/h (1 Bft) N-NE 22 0 min 0 W/m 8,7 C 11,5 C 6,5 km/h (2 Bft)
25/02/2012 19:10 11,4 C 83 % 1023,3 hPa 0,0 mm 3,2 km/h (1 Bft) NE 45 0 min 0 W/m 8,6 C 11,4 C 3,2 km/h (1 Bft)
25/02/2012 19:20 11,4 C 83 % 1023,4 hPa 0,0 mm 6,1 km/h (2 Bft) N-NE 22 0 min 0 W/m 8,6 C 11,4 C 6,1 km/h (2 Bft)
25/02/2012 19:30 11,3 C 83 % 1023,5 hPa 0,0 mm 2,9 km/h (1 Bft) N-NE 22 0 min 0 W/m 8,5 C 11,3 C 4,3 km/h (1 Bft)
25/02/2012 19:40 11,2 C 84 % 1023,5 hPa 0,0 mm 7,6 km/h (2 Bft) N-NE 22 0 min 0 W/m 8,6 C 11,2 C 8,6 km/h (2 Bft)
25/02/2012 19:50 10,9 C 84 % 1023,6 hPa 0,0 mm 4,3 km/h (1 Bft) N-NE 22 0 min 0 W/m 8,3 C 10,9 C 8,3 km/h (2 Bft)
25/02/2012 20:00 10,8 C 85 % 1023,6 hPa 0,0 mm 7,9 km/h (2 Bft) N 360 0 min 0 W/m 8,4 C 10,8 C 10,8 km/h (2 Bft)
25/02/2012 20:10 10,6 C 85 % 1023,7 hPa 0,0 mm 4,7 km/h (1 Bft) N-NE 22 0 min 0 W/m 8,2 C 10,6 C 8,3 km/h (2 Bft)
25/02/2012 20:20 10,3 C 85 % 1023,9 hPa 0,0 mm 6,5 km/h (2 Bft) N-NE 22 0 min 0 W/m 7,9 C 10,3 C 10,8 km/h (2 Bft)
25/02/2012 20:30 10,2 C 86 % 1023,8 hPa 0,0 mm 7,2 km/h (2 Bft) N-NE 22 0 min 0 W/m 8,0 C 10,2 C 7,9 km/h (2 Bft)
25/02/2012 20:40 10,0 C 87 % 1023,8 hPa 0,0 mm 6,1 km/h (2 Bft) NE 45 0 min 0 W/m 7,9 C 9,4 C 9,0 km/h (2 Bft)
25/02/2012 20:50 9,9 C 87 % 1023,9 hPa 0,0 mm 5,8 km/h (2 Bft) N-NE 22 0 min 0 W/m 7,8 C 9,4 C 9,7 km/h (2 Bft)
25/02/2012 21:00 9,8 C 87 % 1024,0 hPa 0,0 mm 6,1 km/h (2 Bft) N-NE 22 0 min 0 W/m 7,7 C 9,2 C 8,6 km/h (2 Bft)
25/02/2012 21:10 9,8 C 87 % 1024,0 hPa 0,0 mm 4,0 km/h (1 Bft) NE 45 0 min 0 W/m 7,7 C 9,8 C 7,6 km/h (2 Bft)
25/02/2012 21:20 9,7 C 87 % 1024,0 hPa 0,0 mm 4,0 km/h (1 Bft) N-NE 22 0 min 0 W/m 7,6 C 9,7 C 4,3 km/h (1 Bft)
25/02/2012 21:30 9,6 C 87 % 1024,2 hPa 0,0 mm 4,7 km/h (1 Bft) N-NE 22 0 min 0 W/m 7,5 C 9,4 C 8,3 km/h (2 Bft)
25/02/2012 21:40 9,6 C 87 % 1024,2 hPa 0,0 mm 3,2 km/h (1 Bft) N-NE 22 0 min 0 W/m 7,5 C 9,6 C 4,7 km/h (1 Bft)
25/02/2012 21:50 9,5 C 87 % 1024,1 hPa 0,0 mm 8,3 km/h (2 Bft) N-NE 22 0 min 0 W/m 7,4 C 8,4 C 9,0 km/h (2 Bft)
25/02/2012 22:00 9,4 C 87 % 1024,2 hPa 0,0 mm 5,8 km/h (2 Bft) N-NE 22 0 min 0 W/m 7,3 C 8,8 C 5,8 km/h (2 Bft)
25/02/2012 22:10 9,4 C 87 % 1024,3 hPa 0,0 mm 6,1 km/h (2 Bft) N-NE 22 0 min 0 W/m 7,3 C 8,8 C 11,9 km/h (2 Bft)
25/02/2012 22:20 9,4 C 87 % 1024,3 hPa 0,0 mm 6,5 km/h (2 Bft) NE 45 0 min 0 W/m 7,3 C 8,7 C 9,7 km/h (2 Bft)
25/02/2012 22:30 9,4 C 87 % 1024,3 hPa 0,0 mm 6,8 km/h (2 Bft) N-NE 22 0 min 0 W/m 7,3 C 8,6 C 10,4 km/h (2 Bft)
25/02/2012 22:40 9,3 C 87 % 1024,4 hPa 0,0 mm 7,9 km/h (2 Bft) N-NE 22 0 min 0 W/m 7,2 C 8,2 C 11,5 km/h (2 Bft)
25/02/2012 22:50 9,3 C 87 % 1024,4 hPa 0,0 mm 4,3 km/h (1 Bft) N-NE 22 0 min 0 W/m 7,2 C 9,3 C 9,0 km/h (2 Bft)
25/02/2012 23:00 9,3 C 87 % 1024,5 hPa 0,0 mm 6,8 km/h (2 Bft) N 360 0 min 0 W/m 7,2 C 8,5 C 9,7 km/h (2 Bft)
25/02/2012 23:10 9,3 C 87 % 1024,5 hPa 0,0 mm 9,4 km/h (2 Bft) N 360 0 min 0 W/m 7,2 C 7,9 C 16,6 km/h (3 Bft)
25/02/2012 23:20 9,2 C 87 % 1024,5 hPa 0,0 mm 7,9 km/h (2 Bft) NE 45 0 min 0 W/m 7,2 C 8,1 C 10,8 km/h (2 Bft)
25/02/2012 23:30 9,2 C 87 % 1024,3 hPa 0,0 mm 6,8 km/h (2 Bft) NE 45 0 min 0 W/m 7,2 C 8,3 C 12,2 km/h (2 Bft)
25/02/2012 23:40 9,2 C 87 % 1024,3 hPa 0,0 mm 5,0 km/h (1 Bft) N-NE 22 0 min 0 W/m 7,2 C 8,8 C 9,0 km/h (2 Bft)
25/02/2012 23:50 9,2 C 87 % 1024,3 hPa 0,0 mm 2,2 km/h (1 Bft) E-NE 67 0 min 0 W/m 7,2 C 9,2 C 3,2 km/h (1 Bft)
_ Min-Heure 08:20 15:00 18:40 - 01:30 - - - - 03:30 09:00 01:30
Minimum _ 7,5 C 73 % 1023,2 hPa - 0,0 km/h (0 Bft) - - - - 6,5 C 5,9 C 0,0 km/h (0 Bft)
_ Max-Heure 14:50 10:10 00:00 23:50 15:20 - - 18:20 23:50 14:50 14:50 23:10
Maximum _ 15,1 C 94 % 1027,6 hPa 0,0 mm 11,2 km/h
N-NE (2 Bft)
- - 2 min 0 W/m 10,5 C 15,1 C 16,6 km/h
N (3 Bft)
Moyenne _ 10,2 C 86 % 1025,1 hPa #0,0 mm 5,0 km/h (1 Bft) NE - #2:06 h 0 W/m 8,0 C 10,0 C 7,8 km/h (2 Bft)
Saint Bonnet de Bellac- Haute Vienne - France